sensor_id;sensor_type;location;lat;lon;timestamp;P1;durP1;ratioP1;P2;durP2;ratioP2
21309;SDS011;10814;51.722;8.772;2024-03-08T00:00:15;25.52;;;19.20;;
21309;SDS011;10814;51.722;8.772;2024-03-08T00:02:43;25.33;;;18.45;;
21309;SDS011;10814;51.722;8.772;2024-03-08T00:05:10;28.23;;;19.92;;
21309;SDS011;10814;51.722;8.772;2024-03-08T00:07:40;26.80;;;18.90;;
21309;SDS011;10814;51.722;8.772;2024-03-08T00:10:07;25.70;;;18.85;;
21309;SDS011;10814;51.722;8.772;2024-03-08T00:12:41;26.05;;;18.52;;
21309;SDS011;10814;51.722;8.772;2024-03-08T00:15:11;28.60;;;20.20;;
21309;SDS011;10814;51.722;8.772;2024-03-08T00:17:39;26.38;;;19.52;;
21309;SDS011;10814;51.722;8.772;2024-03-08T00:20:05;26.23;;;19.05;;
21309;SDS011;10814;51.722;8.772;2024-03-08T00:22:39;27.17;;;18.92;;
21309;SDS011;10814;51.722;8.772;2024-03-08T00:25:06;26.87;;;18.13;;
21309;SDS011;10814;51.722;8.772;2024-03-08T00:27:35;30.25;;;20.17;;
21309;SDS011;10814;51.722;8.772;2024-03-08T00:30:01;29.65;;;20.38;;
21309;SDS011;10814;51.722;8.772;2024-03-08T00:32:28;28.05;;;19.17;;
21309;SDS011;10814;51.722;8.772;2024-03-08T00:34:53;24.73;;;19.05;;
21309;SDS011;10814;51.722;8.772;2024-03-08T00:37:22;26.63;;;18.67;;
21309;SDS011;10814;51.722;8.772;2024-03-08T00:39:51;25.42;;;18.08;;
21309;SDS011;10814;51.722;8.772;2024-03-08T00:42:17;26.83;;;19.17;;
21309;SDS011;10814;51.722;8.772;2024-03-08T00:44:45;29.27;;;19.67;;
21309;SDS011;10814;51.722;8.772;2024-03-08T00:47:11;28.17;;;19.77;;
21309;SDS011;10814;51.722;8.772;2024-03-08T00:49:37;27.73;;;19.75;;
21309;SDS011;10814;51.722;8.772;2024-03-08T00:52:06;28.95;;;20.35;;
21309;SDS011;10814;51.722;8.772;2024-03-08T00:54:32;26.88;;;19.63;;
21309;SDS011;10814;51.722;8.772;2024-03-08T00:56:58;25.45;;;19.10;;
21309;SDS011;10814;51.722;8.772;2024-03-08T00:59:27;27.75;;;20.27;;
21309;SDS011;10814;51.722;8.772;2024-03-08T01:01:53;26.33;;;19.70;;
21309;SDS011;10814;51.722;8.772;2024-03-08T01:04:19;26.48;;;19.23;;
21309;SDS011;10814;51.722;8.772;2024-03-08T01:06:46;27.83;;;19.95;;
21309;SDS011;10814;51.722;8.772;2024-03-08T01:09:14;26.38;;;19.75;;
21309;SDS011;10814;51.722;8.772;2024-03-08T01:11:42;28.25;;;19.70;;
21309;SDS011;10814;51.722;8.772;2024-03-08T01:14:08;27.02;;;19.33;;
21309;SDS011;10814;51.722;8.772;2024-03-08T01:16:34;28.80;;;20.60;;
21309;SDS011;10814;51.722;8.772;2024-03-08T01:18:59;26.25;;;19.48;;
21309;SDS011;10814;51.722;8.772;2024-03-08T01:21:25;30.38;;;20.42;;
21309;SDS011;10814;51.722;8.772;2024-03-08T01:23:51;30.25;;;20.17;;
21309;SDS011;10814;51.722;8.772;2024-03-08T01:26:16;27.33;;;20.05;;
21309;SDS011;10814;51.722;8.772;2024-03-08T01:28:42;28.63;;;20.85;;
21309;SDS011;10814;51.722;8.772;2024-03-08T01:31:07;27.35;;;20.13;;
21309;SDS011;10814;51.722;8.772;2024-03-08T01:33:33;29.88;;;21.10;;
21309;SDS011;10814;51.722;8.772;2024-03-08T01:35:58;28.08;;;20.48;;
21309;SDS011;10814;51.722;8.772;2024-03-08T01:38:24;29.77;;;20.65;;
21309;SDS011;10814;51.722;8.772;2024-03-08T01:40:50;28.08;;;20.27;;
21309;SDS011;10814;51.722;8.772;2024-03-08T01:45:45;29.02;;;20.25;;
21309;SDS011;10814;51.722;8.772;2024-03-08T01:48:11;28.77;;;20.73;;
21309;SDS011;10814;51.722;8.772;2024-03-08T01:50:37;28.65;;;19.90;;
21309;SDS011;10814;51.722;8.772;2024-03-08T01:53:04;29.80;;;21.35;;
21309;SDS011;10814;51.722;8.772;2024-03-08T01:55:31;30.20;;;21.23;;
21309;SDS011;10814;51.722;8.772;2024-03-08T01:57:57;26.15;;;19.92;;
21309;SDS011;10814;51.722;8.772;2024-03-08T02:00:24;31.08;;;21.15;;
21309;SDS011;10814;51.722;8.772;2024-03-08T02:02:51;28.48;;;20.17;;
21309;SDS011;10814;51.722;8.772;2024-03-08T02:05:19;29.95;;;20.35;;
21309;SDS011;10814;51.722;8.772;2024-03-08T02:07:46;27.95;;;20.95;;
21309;SDS011;10814;51.722;8.772;2024-03-08T02:10:12;29.92;;;20.77;;
21309;SDS011;10814;51.722;8.772;2024-03-08T02:12:38;28.40;;;20.05;;
21309;SDS011;10814;51.722;8.772;2024-03-08T02:15:04;27.40;;;20.70;;
21309;SDS011;10814;51.722;8.772;2024-03-08T02:17:31;29.58;;;20.15;;
21309;SDS011;10814;51.722;8.772;2024-03-08T02:19:58;27.40;;;20.48;;
21309;SDS011;10814;51.722;8.772;2024-03-08T02:22:26;29.00;;;21.40;;
21309;SDS011;10814;51.722;8.772;2024-03-08T02:24:53;28.30;;;20.88;;
21309;SDS011;10814;51.722;8.772;2024-03-08T02:27:23;30.17;;;21.35;;
21309;SDS011;10814;51.722;8.772;2024-03-08T02:29:56;31.05;;;21.17;;
21309;SDS011;10814;51.722;8.772;2024-03-08T02:32:22;27.67;;;21.25;;
21309;SDS011;10814;51.722;8.772;2024-03-08T02:34:49;27.95;;;20.27;;
21309;SDS011;10814;51.722;8.772;2024-03-08T02:37:17;29.30;;;21.05;;
21309;SDS011;10814;51.722;8.772;2024-03-08T02:39:43;28.60;;;21.15;;
21309;SDS011;10814;51.722;8.772;2024-03-08T02:42:10;29.80;;;21.45;;
21309;SDS011;10814;51.722;8.772;2024-03-08T02:44:38;29.88;;;21.70;;
21309;SDS011;10814;51.722;8.772;2024-03-08T02:47:08;31.27;;;22.75;;
21309;SDS011;10814;51.722;8.772;2024-03-08T02:49:34;28.98;;;21.35;;
21309;SDS011;10814;51.722;8.772;2024-03-08T02:52:02;30.67;;;20.92;;
21309;SDS011;10814;51.722;8.772;2024-03-08T02:54:27;30.15;;;22.33;;
21309;SDS011;10814;51.722;8.772;2024-03-08T02:56:53;31.33;;;21.77;;
21309;SDS011;10814;51.722;8.772;2024-03-08T02:59:19;34.78;;;22.00;;
21309;SDS011;10814;51.722;8.772;2024-03-08T03:01:44;32.00;;;21.67;;
21309;SDS011;10814;51.722;8.772;2024-03-08T03:04:10;30.55;;;22.02;;
21309;SDS011;10814;51.722;8.772;2024-03-08T03:06:36;29.02;;;20.52;;
21309;SDS011;10814;51.722;8.772;2024-03-08T03:09:01;31.65;;;22.17;;
21309;SDS011;10814;51.722;8.772;2024-03-08T03:11:27;30.23;;;22.00;;
21309;SDS011;10814;51.722;8.772;2024-03-08T03:13:53;29.90;;;21.55;;
21309;SDS011;10814;51.722;8.772;2024-03-08T03:16:19;32.92;;;21.15;;
21309;SDS011;10814;51.722;8.772;2024-03-08T03:18:45;31.88;;;21.92;;
21309;SDS011;10814;51.722;8.772;2024-03-08T03:21:11;31.17;;;22.02;;
21309;SDS011;10814;51.722;8.772;2024-03-08T03:23:38;31.92;;;23.13;;
21309;SDS011;10814;51.722;8.772;2024-03-08T03:26:05;31.30;;;22.63;;
21309;SDS011;10814;51.722;8.772;2024-03-08T03:28:32;35.05;;;23.65;;
21309;SDS011;10814;51.722;8.772;2024-03-08T03:30:58;28.77;;;22.02;;
21309;SDS011;10814;51.722;8.772;2024-03-08T03:33:24;30.98;;;21.98;;
21309;SDS011;10814;51.722;8.772;2024-03-08T03:35:50;32.47;;;22.95;;
21309;SDS011;10814;51.722;8.772;2024-03-08T03:38:17;34.08;;;23.10;;
21309;SDS011;10814;51.722;8.772;2024-03-08T03:40:44;32.15;;;23.08;;
21309;SDS011;10814;51.722;8.772;2024-03-08T03:43:11;33.17;;;23.73;;
21309;SDS011;10814;51.722;8.772;2024-03-08T03:45:37;31.65;;;23.17;;
21309;SDS011;10814;51.722;8.772;2024-03-08T03:50:31;31.00;;;22.85;;
21309;SDS011;10814;51.722;8.772;2024-03-08T03:52:59;33.70;;;23.00;;
21309;SDS011;10814;51.722;8.772;2024-03-08T03:55:25;31.20;;;22.30;;
21309;SDS011;10814;51.722;8.772;2024-03-08T03:57:52;32.03;;;22.17;;
21309;SDS011;10814;51.722;8.772;2024-03-08T04:00:17;31.17;;;22.05;;
21309;SDS011;10814;51.722;8.772;2024-03-08T04:02:43;30.45;;;22.85;;
21309;SDS011;10814;51.722;8.772;2024-03-08T04:05:09;32.72;;;22.30;;
21309;SDS011;10814;51.722;8.772;2024-03-08T04:07:36;31.48;;;22.30;;
21309;SDS011;10814;51.722;8.772;2024-03-08T04:10:02;32.05;;;22.77;;
21309;SDS011;10814;51.722;8.772;2024-03-08T04:12:29;31.95;;;23.00;;
21309;SDS011;10814;51.722;8.772;2024-03-08T04:14:54;29.70;;;21.70;;
21309;SDS011;10814;51.722;8.772;2024-03-08T04:17:20;31.13;;;22.58;;
21309;SDS011;10814;51.722;8.772;2024-03-08T04:19:46;30.88;;;22.30;;
21309;SDS011;10814;51.722;8.772;2024-03-08T04:22:13;30.52;;;22.38;;
21309;SDS011;10814;51.722;8.772;2024-03-08T04:24:39;32.60;;;23.80;;
21309;SDS011;10814;51.722;8.772;2024-03-08T04:27:06;33.08;;;23.58;;
21309;SDS011;10814;51.722;8.772;2024-03-08T04:29:31;31.45;;;22.95;;
21309;SDS011;10814;51.722;8.772;2024-03-08T04:31:57;34.63;;;23.48;;
21309;SDS011;10814;51.722;8.772;2024-03-08T04:34:23;31.63;;;22.48;;
21309;SDS011;10814;51.722;8.772;2024-03-08T04:36:49;32.08;;;22.60;;
21309;SDS011;10814;51.722;8.772;2024-03-08T04:39:15;31.80;;;22.77;;
21309;SDS011;10814;51.722;8.772;2024-03-08T04:41:41;31.38;;;21.80;;
21309;SDS011;10814;51.722;8.772;2024-03-08T04:44:08;30.55;;;22.70;;
21309;SDS011;10814;51.722;8.772;2024-03-08T04:46:35;32.80;;;22.90;;
21309;SDS011;10814;51.722;8.772;2024-03-08T04:49:00;33.63;;;22.70;;
21309;SDS011;10814;51.722;8.772;2024-03-08T04:51:26;35.67;;;22.90;;
21309;SDS011;10814;51.722;8.772;2024-03-08T04:53:52;30.05;;;22.15;;
21309;SDS011;10814;51.722;8.772;2024-03-08T04:56:18;33.72;;;23.08;;
21309;SDS011;10814;51.722;8.772;2024-03-08T04:58:44;31.33;;;22.65;;
21309;SDS011;10814;51.722;8.772;2024-03-08T05:01:11;33.95;;;22.55;;
21309;SDS011;10814;51.722;8.772;2024-03-08T05:03:37;32.42;;;22.77;;
21309;SDS011;10814;51.722;8.772;2024-03-08T05:06:04;31.48;;;22.25;;
21309;SDS011;10814;51.722;8.772;2024-03-08T05:08:29;29.85;;;21.60;;
21309;SDS011;10814;51.722;8.772;2024-03-08T05:10:55;32.35;;;22.52;;
21309;SDS011;10814;51.722;8.772;2024-03-08T05:13:21;32.75;;;23.38;;
21309;SDS011;10814;51.722;8.772;2024-03-08T05:15:48;33.45;;;22.15;;
21309;SDS011;10814;51.722;8.772;2024-03-08T05:18:15;31.73;;;22.33;;
21309;SDS011;10814;51.722;8.772;2024-03-08T05:20:41;35.85;;;23.65;;
21309;SDS011;10814;51.722;8.772;2024-03-08T05:23:06;34.30;;;22.70;;
21309;SDS011;10814;51.722;8.772;2024-03-08T05:25:33;32.42;;;23.00;;
21309;SDS011;10814;51.722;8.772;2024-03-08T05:27:58;31.15;;;22.23;;
21309;SDS011;10814;51.722;8.772;2024-03-08T05:30:24;32.85;;;23.48;;
21309;SDS011;10814;51.722;8.772;2024-03-08T05:32:50;31.08;;;22.27;;
21309;SDS011;10814;51.722;8.772;2024-03-08T05:35:15;33.88;;;22.60;;
21309;SDS011;10814;51.722;8.772;2024-03-08T05:37:41;34.40;;;23.02;;
21309;SDS011;10814;51.722;8.772;2024-03-08T05:40:10;34.53;;;23.17;;
21309;SDS011;10814;51.722;8.772;2024-03-08T05:42:36;31.80;;;24.05;;
21309;SDS011;10814;51.722;8.772;2024-03-08T05:45:05;31.30;;;22.33;;
21309;SDS011;10814;51.722;8.772;2024-03-08T05:47:35;30.23;;;22.25;;
21309;SDS011;10814;51.722;8.772;2024-03-08T05:50:00;33.88;;;23.05;;
21309;SDS011;10814;51.722;8.772;2024-03-08T05:52:26;33.67;;;24.00;;
21309;SDS011;10814;51.722;8.772;2024-03-08T05:54:52;33.42;;;22.50;;
21309;SDS011;10814;51.722;8.772;2024-03-08T05:57:18;33.53;;;24.05;;
21309;SDS011;10814;51.722;8.772;2024-03-08T05:59:44;33.75;;;23.20;;
21309;SDS011;10814;51.722;8.772;2024-03-08T06:02:09;35.55;;;23.30;;
21309;SDS011;10814;51.722;8.772;2024-03-08T06:04:35;33.28;;;24.20;;
21309;SDS011;10814;51.722;8.772;2024-03-08T06:07:00;34.38;;;24.00;;
21309;SDS011;10814;51.722;8.772;2024-03-08T06:09:28;34.65;;;24.50;;
21309;SDS011;10814;51.722;8.772;2024-03-08T06:11:54;33.47;;;23.40;;
21309;SDS011;10814;51.722;8.772;2024-03-08T06:14:19;32.95;;;22.92;;
21309;SDS011;10814;51.722;8.772;2024-03-08T06:16:46;34.10;;;23.65;;
21309;SDS011;10814;51.722;8.772;2024-03-08T06:19:12;35.35;;;23.88;;
21309;SDS011;10814;51.722;8.772;2024-03-08T06:21:38;33.72;;;23.40;;
21309;SDS011;10814;51.722;8.772;2024-03-08T06:24:04;36.53;;;24.48;;
21309;SDS011;10814;51.722;8.772;2024-03-08T06:26:30;32.90;;;23.02;;
21309;SDS011;10814;51.722;8.772;2024-03-08T06:28:56;34.88;;;23.63;;
21309;SDS011;10814;51.722;8.772;2024-03-08T06:31:22;37.75;;;23.98;;
21309;SDS011;10814;51.722;8.772;2024-03-08T06:33:47;33.80;;;23.90;;
21309;SDS011;10814;51.722;8.772;2024-03-08T06:36:15;35.97;;;24.52;;
21309;SDS011;10814;51.722;8.772;2024-03-08T06:38:44;35.55;;;24.73;;
21309;SDS011;10814;51.722;8.772;2024-03-08T06:41:15;37.03;;;24.33;;
21309;SDS011;10814;51.722;8.772;2024-03-08T06:43:45;34.05;;;24.30;;
21309;SDS011;10814;51.722;8.772;2024-03-08T06:46:14;36.17;;;24.77;;
21309;SDS011;10814;51.722;8.772;2024-03-08T06:48:40;34.13;;;24.63;;
21309;SDS011;10814;51.722;8.772;2024-03-08T06:51:06;33.05;;;23.58;;
21309;SDS011;10814;51.722;8.772;2024-03-08T06:53:32;35.72;;;24.88;;
21309;SDS011;10814;51.722;8.772;2024-03-08T06:55:57;36.78;;;24.63;;
21309;SDS011;10814;51.722;8.772;2024-03-08T06:58:24;34.25;;;23.67;;
21309;SDS011;10814;51.722;8.772;2024-03-08T07:00:49;35.03;;;24.38;;
21309;SDS011;10814;51.722;8.772;2024-03-08T07:03:18;32.92;;;23.48;;
21309;SDS011;10814;51.722;8.772;2024-03-08T07:05:44;31.95;;;22.95;;
21309;SDS011;10814;51.722;8.772;2024-03-08T07:08:10;32.72;;;23.83;;
21309;SDS011;10814;51.722;8.772;2024-03-08T07:10:37;32.05;;;23.50;;
21309;SDS011;10814;51.722;8.772;2024-03-08T07:13:06;31.23;;;23.38;;
21309;SDS011;10814;51.722;8.772;2024-03-08T07:15:34;33.05;;;23.83;;
21309;SDS011;10814;51.722;8.772;2024-03-08T07:18:00;32.80;;;24.08;;
21309;SDS011;10814;51.722;8.772;2024-03-08T07:20:26;31.75;;;23.73;;
21309;SDS011;10814;51.722;8.772;2024-03-08T07:22:53;33.28;;;23.70;;
21309;SDS011;10814;51.722;8.772;2024-03-08T07:25:19;30.88;;;22.70;;
21309;SDS011;10814;51.722;8.772;2024-03-08T07:27:45;29.40;;;23.10;;
21309;SDS011;10814;51.722;8.772;2024-03-08T07:30:18;30.20;;;22.35;;
21309;SDS011;10814;51.722;8.772;2024-03-08T07:33:04;30.23;;;22.75;;
21309;SDS011;10814;51.722;8.772;2024-03-08T07:35:30;30.35;;;21.67;;
21309;SDS011;10814;51.722;8.772;2024-03-08T07:37:56;30.27;;;21.95;;
21309;SDS011;10814;51.722;8.772;2024-03-08T07:40:21;30.63;;;21.75;;
21309;SDS011;10814;51.722;8.772;2024-03-08T07:42:48;28.02;;;21.30;;
21309;SDS011;10814;51.722;8.772;2024-03-08T07:45:16;31.83;;;23.27;;
21309;SDS011;10814;51.722;8.772;2024-03-08T07:47:42;31.90;;;23.35;;
21309;SDS011;10814;51.722;8.772;2024-03-08T07:50:08;31.83;;;21.55;;
21309;SDS011;10814;51.722;8.772;2024-03-08T07:52:34;29.27;;;22.45;;
21309;SDS011;10814;51.722;8.772;2024-03-08T07:55:01;29.65;;;21.10;;
21309;SDS011;10814;51.722;8.772;2024-03-08T07:57:28;29.20;;;22.23;;
21309;SDS011;10814;51.722;8.772;2024-03-08T07:59:54;29.20;;;22.35;;
21309;SDS011;10814;51.722;8.772;2024-03-08T08:02:20;31.52;;;22.38;;
21309;SDS011;10814;51.722;8.772;2024-03-08T08:04:46;33.95;;;21.58;;
21309;SDS011;10814;51.722;8.772;2024-03-08T08:07:12;32.53;;;22.90;;
21309;SDS011;10814;51.722;8.772;2024-03-08T08:09:37;30.42;;;22.10;;
21309;SDS011;10814;51.722;8.772;2024-03-08T08:12:03;31.33;;;22.17;;
21309;SDS011;10814;51.722;8.772;2024-03-08T08:14:29;28.45;;;22.17;;
21309;SDS011;10814;51.722;8.772;2024-03-08T08:16:55;27.80;;;21.88;;
21309;SDS011;10814;51.722;8.772;2024-03-08T08:19:22;28.73;;;22.20;;
21309;SDS011;10814;51.722;8.772;2024-03-08T08:21:48;31.58;;;22.88;;
21309;SDS011;10814;51.722;8.772;2024-03-08T08:24:14;33.15;;;22.05;;
21309;SDS011;10814;51.722;8.772;2024-03-08T08:26:40;28.00;;;21.45;;
21309;SDS011;10814;51.722;8.772;2024-03-08T08:29:06;30.23;;;21.65;;
21309;SDS011;10814;51.722;8.772;2024-03-08T08:31:31;31.95;;;22.60;;
21309;SDS011;10814;51.722;8.772;2024-03-08T08:33:58;29.33;;;22.13;;
21309;SDS011;10814;51.722;8.772;2024-03-08T08:36:24;29.17;;;21.35;;
21309;SDS011;10814;51.722;8.772;2024-03-08T08:38:50;29.23;;;21.77;;
21309;SDS011;10814;51.722;8.772;2024-03-08T08:41:19;31.42;;;22.35;;
21309;SDS011;10814;51.722;8.772;2024-03-08T08:43:46;30.27;;;22.40;;
21309;SDS011;10814;51.722;8.772;2024-03-08T08:46:16;27.02;;;20.42;;
21309;SDS011;10814;51.722;8.772;2024-03-08T08:48:42;30.77;;;21.58;;
21309;SDS011;10814;51.722;8.772;2024-03-08T08:51:10;31.83;;;21.23;;
21309;SDS011;10814;51.722;8.772;2024-03-08T08:53:38;29.33;;;21.15;;
21309;SDS011;10814;51.722;8.772;2024-03-08T08:56:07;26.85;;;20.33;;
21309;SDS011;10814;51.722;8.772;2024-03-08T08:58:38;27.17;;;20.77;;
21309;SDS011;10814;51.722;8.772;2024-03-08T09:01:05;30.05;;;21.23;;
21309;SDS011;10814;51.722;8.772;2024-03-08T09:03:30;31.52;;;21.08;;
21309;SDS011;10814;51.722;8.772;2024-03-08T09:05:56;29.15;;;20.60;;
21309;SDS011;10814;51.722;8.772;2024-03-08T09:08:21;25.95;;;19.67;;
21309;SDS011;10814;51.722;8.772;2024-03-08T09:10:48;27.55;;;20.83;;
21309;SDS011;10814;51.722;8.772;2024-03-08T09:13:13;29.90;;;21.38;;
21309;SDS011;10814;51.722;8.772;2024-03-08T09:15:39;28.13;;;20.17;;
21309;SDS011;10814;51.722;8.772;2024-03-08T09:18:06;25.92;;;19.67;;
21309;SDS011;10814;51.722;8.772;2024-03-08T09:20:33;25.90;;;20.30;;
21309;SDS011;10814;51.722;8.772;2024-03-08T09:22:58;25.02;;;19.77;;
21309;SDS011;10814;51.722;8.772;2024-03-08T09:25:25;28.85;;;20.52;;
21309;SDS011;10814;51.722;8.772;2024-03-08T09:27:51;28.85;;;20.30;;
21309;SDS011;10814;51.722;8.772;2024-03-08T09:30:16;26.17;;;19.45;;
21309;SDS011;10814;51.722;8.772;2024-03-08T09:32:43;27.88;;;19.90;;
21309;SDS011;10814;51.722;8.772;2024-03-08T09:35:08;26.77;;;19.67;;
21309;SDS011;10814;51.722;8.772;2024-03-08T09:37:36;26.75;;;20.13;;
21309;SDS011;10814;51.722;8.772;2024-03-08T09:40:02;28.30;;;19.58;;
21309;SDS011;10814;51.722;8.772;2024-03-08T09:42:34;26.58;;;19.70;;
21309;SDS011;10814;51.722;8.772;2024-03-08T09:45:04;26.45;;;19.98;;
21309;SDS011;10814;51.722;8.772;2024-03-08T09:47:42;27.00;;;18.65;;
21309;SDS011;10814;51.722;8.772;2024-03-08T09:50:09;28.30;;;19.58;;
21309;SDS011;10814;51.722;8.772;2024-03-08T09:52:38;26.05;;;19.48;;
21309;SDS011;10814;51.722;8.772;2024-03-08T09:55:05;24.65;;;18.40;;
21309;SDS011;10814;51.722;8.772;2024-03-08T09:57:36;24.48;;;18.58;;
21309;SDS011;10814;51.722;8.772;2024-03-08T10:00:02;23.52;;;17.42;;
21309;SDS011;10814;51.722;8.772;2024-03-08T10:02:44;24.98;;;19.20;;
21309;SDS011;10814;51.722;8.772;2024-03-08T10:05:11;23.63;;;17.55;;
21309;SDS011;10814;51.722;8.772;2024-03-08T10:07:37;24.67;;;17.35;;
21309;SDS011;10814;51.722;8.772;2024-03-08T10:10:05;25.35;;;17.42;;
21309;SDS011;10814;51.722;8.772;2024-03-08T10:12:33;23.63;;;17.92;;
21309;SDS011;10814;51.722;8.772;2024-03-08T10:14:59;21.73;;;17.10;;
21309;SDS011;10814;51.722;8.772;2024-03-08T10:17:26;21.05;;;16.67;;
21309;SDS011;10814;51.722;8.772;2024-03-08T10:19:52;24.05;;;16.98;;
21309;SDS011;10814;51.722;8.772;2024-03-08T10:22:18;21.27;;;16.27;;
21309;SDS011;10814;51.722;8.772;2024-03-08T10:24:45;23.52;;;16.33;;
21309;SDS011;10814;51.722;8.772;2024-03-08T10:27:11;21.60;;;16.27;;
21309;SDS011;10814;51.722;8.772;2024-03-08T10:29:37;20.73;;;16.45;;
21309;SDS011;10814;51.722;8.772;2024-03-08T10:32:08;22.48;;;17.15;;
21309;SDS011;10814;51.722;8.772;2024-03-08T10:34:34;20.88;;;15.75;;
21309;SDS011;10814;51.722;8.772;2024-03-08T10:37:02;19.50;;;15.45;;
21309;SDS011;10814;51.722;8.772;2024-03-08T10:39:30;19.45;;;15.25;;
21309;SDS011;10814;51.722;8.772;2024-03-08T10:42:02;23.45;;;16.15;;
21309;SDS011;10814;51.722;8.772;2024-03-08T10:52:49;22.30;;;15.43;;
21309;SDS011;10814;51.722;8.772;2024-03-08T10:55:17;19.50;;;15.35;;
21309;SDS011;10814;51.722;8.772;2024-03-08T10:57:45;18.63;;;14.55;;
21309;SDS011;10814;51.722;8.772;2024-03-08T11:00:11;20.55;;;15.60;;
21309;SDS011;10814;51.722;8.772;2024-03-08T11:02:38;18.63;;;15.40;;
21309;SDS011;10814;51.722;8.772;2024-03-08T11:05:04;20.60;;;15.85;;
21309;SDS011;10814;51.722;8.772;2024-03-08T11:07:33;17.98;;;14.30;;
21309;SDS011;10814;51.722;8.772;2024-03-08T11:10:02;19.50;;;15.07;;
21309;SDS011;10814;51.722;8.772;2024-03-08T11:12:35;19.35;;;15.57;;
21309;SDS011;10814;51.722;8.772;2024-03-08T11:15:02;19.55;;;14.93;;
21309;SDS011;10814;51.722;8.772;2024-03-08T11:20:04;21.27;;;15.20;;
21309;SDS011;10814;51.722;8.772;2024-03-08T11:22:41;19.33;;;15.43;;
21309;SDS011;10814;51.722;8.772;2024-03-08T11:31:21;19.88;;;14.93;;
21309;SDS011;10814;51.722;8.772;2024-03-08T11:33:34;20.00;;;15.75;;
21309;SDS011;10814;51.722;8.772;2024-03-08T11:36:20;18.52;;;14.60;;
21309;SDS011;10814;51.722;8.772;2024-03-08T11:38:47;21.98;;;15.55;;
21309;SDS011;10814;51.722;8.772;2024-03-08T11:41:17;20.13;;;15.88;;
21309;SDS011;10814;51.722;8.772;2024-03-08T11:43:49;21.63;;;16.83;;
21309;SDS011;10814;51.722;8.772;2024-03-08T11:46:26;22.23;;;16.42;;
21309;SDS011;10814;51.722;8.772;2024-03-08T11:48:54;22.35;;;16.10;;
21309;SDS011;10814;51.722;8.772;2024-03-08T11:51:21;20.38;;;16.23;;
21309;SDS011;10814;51.722;8.772;2024-03-08T11:53:48;22.27;;;17.00;;
21309;SDS011;10814;51.722;8.772;2024-03-08T11:56:15;21.48;;;15.98;;
21309;SDS011;10814;51.722;8.772;2024-03-08T11:58:41;21.70;;;16.10;;
21309;SDS011;10814;51.722;8.772;2024-03-08T12:01:07;21.63;;;16.00;;
21309;SDS011;10814;51.722;8.772;2024-03-08T12:03:41;22.15;;;16.55;;
21309;SDS011;10814;51.722;8.772;2024-03-08T12:06:10;20.73;;;16.25;;
21309;SDS011;10814;51.722;8.772;2024-03-08T12:08:36;21.60;;;16.83;;
21309;SDS011;10814;51.722;8.772;2024-03-08T12:11:04;22.85;;;17.20;;
21309;SDS011;10814;51.722;8.772;2024-03-08T12:13:31;20.90;;;16.00;;
21309;SDS011;10814;51.722;8.772;2024-03-08T12:15:59;22.67;;;16.63;;
21309;SDS011;10814;51.722;8.772;2024-03-08T12:18:25;20.60;;;15.65;;
21309;SDS011;10814;51.722;8.772;2024-03-08T12:21:09;23.15;;;16.35;;
21309;SDS011;10814;51.722;8.772;2024-03-08T12:23:36;21.53;;;17.20;;
21309;SDS011;10814;51.722;8.772;2024-03-08T12:26:16;21.48;;;16.52;;
21309;SDS011;10814;51.722;8.772;2024-03-08T12:28:43;24.77;;;17.48;;
21309;SDS011;10814;51.722;8.772;2024-03-08T12:31:13;21.27;;;16.88;;
21309;SDS011;10814;51.722;8.772;2024-03-08T12:36:18;24.25;;;17.08;;
21309;SDS011;10814;51.722;8.772;2024-03-08T12:38:47;20.38;;;16.63;;
21309;SDS011;10814;51.722;8.772;2024-03-08T12:41:14;23.77;;;17.55;;
21309;SDS011;10814;51.722;8.772;2024-03-08T12:43:40;20.58;;;16.83;;
21309;SDS011;10814;51.722;8.772;2024-03-08T12:46:06;24.08;;;18.13;;
21309;SDS011;10814;51.722;8.772;2024-03-08T12:48:34;20.48;;;16.33;;
21309;SDS011;10814;51.722;8.772;2024-03-08T12:51:05;22.35;;;16.63;;
21309;SDS011;10814;51.722;8.772;2024-03-08T12:53:32;26.58;;;16.90;;
21309;SDS011;10814;51.722;8.772;2024-03-08T12:55:58;22.45;;;17.02;;
21309;SDS011;10814;51.722;8.772;2024-03-08T12:58:24;22.38;;;16.98;;
21309;SDS011;10814;51.722;8.772;2024-03-08T13:00:51;20.15;;;16.20;;
21309;SDS011;10814;51.722;8.772;2024-03-08T13:03:17;22.67;;;17.13;;
21309;SDS011;10814;51.722;8.772;2024-03-08T13:05:42;24.08;;;17.55;;
21309;SDS011;10814;51.722;8.772;2024-03-08T13:08:08;22.67;;;16.92;;
21309;SDS011;10814;51.722;8.772;2024-03-08T13:10:41;23.77;;;18.25;;
21309;SDS011;10814;51.722;8.772;2024-03-08T13:13:10;24.75;;;17.10;;
21309;SDS011;10814;51.722;8.772;2024-03-08T13:15:37;24.20;;;17.90;;
21309;SDS011;10814;51.722;8.772;2024-03-08T13:18:03;23.67;;;18.33;;
21309;SDS011;10814;51.722;8.772;2024-03-08T13:20:30;23.83;;;18.02;;
21309;SDS011;10814;51.722;8.772;2024-03-08T13:22:56;21.85;;;16.95;;
21309;SDS011;10814;51.722;8.772;2024-03-08T13:25:24;22.95;;;17.77;;
21309;SDS011;10814;51.722;8.772;2024-03-08T13:27:50;25.73;;;18.40;;
21309;SDS011;10814;51.722;8.772;2024-03-08T13:30:15;23.20;;;17.48;;
21309;SDS011;10814;51.722;8.772;2024-03-08T13:32:43;23.33;;;18.33;;
21309;SDS011;10814;51.722;8.772;2024-03-08T13:35:10;23.00;;;18.00;;
21309;SDS011;10814;51.722;8.772;2024-03-08T13:37:40;23.17;;;16.98;;
21309;SDS011;10814;51.722;8.772;2024-03-08T13:40:07;24.50;;;17.45;;
21309;SDS011;10814;51.722;8.772;2024-03-08T13:42:37;23.15;;;17.60;;
21309;SDS011;10814;51.722;8.772;2024-03-08T13:45:03;25.98;;;17.73;;
21309;SDS011;10814;51.722;8.772;2024-03-08T13:47:32;23.67;;;16.30;;
21309;SDS011;10814;51.722;8.772;2024-03-08T13:49:59;23.17;;;16.70;;
21309;SDS011;10814;51.722;8.772;2024-03-08T13:52:25;22.58;;;16.88;;
21309;SDS011;10814;51.722;8.772;2024-03-08T13:54:54;21.08;;;15.90;;
21309;SDS011;10814;51.722;8.772;2024-03-08T13:57:20;22.00;;;15.73;;
21309;SDS011;10814;51.722;8.772;2024-03-08T13:59:47;21.95;;;15.43;;
21309;SDS011;10814;51.722;8.772;2024-03-08T14:02:14;20.23;;;15.45;;
21309;SDS011;10814;51.722;8.772;2024-03-08T14:04:40;22.58;;;15.82;;
21309;SDS011;10814;51.722;8.772;2024-03-08T14:07:07;24.67;;;16.58;;
21309;SDS011;10814;51.722;8.772;2024-03-08T14:09:33;21.27;;;16.00;;
21309;SDS011;10814;51.722;8.772;2024-03-08T14:12:02;22.27;;;16.90;;
21309;SDS011;10814;51.722;8.772;2024-03-08T14:14:32;25.98;;;16.20;;
21309;SDS011;10814;51.722;8.772;2024-03-08T14:17:00;22.60;;;15.93;;
21309;SDS011;10814;51.722;8.772;2024-03-08T14:19:29;22.20;;;16.50;;
21309;SDS011;10814;51.722;8.772;2024-03-08T14:21:59;22.00;;;16.23;;
21309;SDS011;10814;51.722;8.772;2024-03-08T14:24:25;21.23;;;15.82;;
21309;SDS011;10814;51.722;8.772;2024-03-08T14:26:51;21.65;;;16.13;;
21309;SDS011;10814;51.722;8.772;2024-03-08T14:29:17;21.80;;;15.98;;
21309;SDS011;10814;51.722;8.772;2024-03-08T14:31:43;22.83;;;16.27;;
21309;SDS011;10814;51.722;8.772;2024-03-08T14:34:10;24.45;;;17.67;;
21309;SDS011;10814;51.722;8.772;2024-03-08T14:36:35;24.50;;;16.92;;
21309;SDS011;10814;51.722;8.772;2024-03-08T14:39:01;23.70;;;17.02;;
21309;SDS011;10814;51.722;8.772;2024-03-08T14:41:27;23.23;;;17.33;;
21309;SDS011;10814;51.722;8.772;2024-03-08T14:43:52;24.70;;;17.52;;